createdAt,value
2024-02-21T00:01:23.452Z,102183.69
2024-02-21T00:03:50.427Z,102176.13
2024-02-21T00:06:17.130Z,102169.34
2024-02-21T00:08:43.931Z,102171.16
2024-02-21T00:11:10.654Z,102155.53
2024-02-21T00:13:37.476Z,102151.09
2024-02-21T00:16:04.372Z,102167.56
2024-02-21T00:18:31.096Z,102152.84
2024-02-21T00:20:57.927Z,102166.63
2024-02-21T00:23:24.618Z,102172.47
2024-02-21T00:25:51.323Z,102161.72
2024-02-21T00:28:18.225Z,102154.06
2024-02-21T00:30:45.369Z,102146.19
2024-02-21T00:33:12.132Z,102135.00
2024-02-21T00:35:39.474Z,102127.13
2024-02-21T00:38:06.215Z,102139.03
2024-02-21T00:40:32.932Z,102125.38
2024-02-21T00:42:59.709Z,102135.56
2024-02-21T00:45:26.338Z,102126.16
2024-02-21T00:47:53.045Z,102125.28
2024-02-21T00:50:19.738Z,102128.72
2024-02-21T00:52:46.386Z,102114.78
2024-02-21T00:55:13.279Z,102131.94
2024-02-21T00:57:39.896Z,102129.38
2024-02-21T01:00:07.034Z,102136.28
2024-02-21T01:02:33.673Z,102142.22
2024-02-21T01:05:00.610Z,102130.22
2024-02-21T01:07:27.301Z,102143.28
2024-02-21T01:09:56.736Z,102144.25
2024-02-21T01:12:23.400Z,102144.09
2024-02-21T01:14:50.691Z,102137.25
2024-02-21T01:17:17.439Z,102115.00
2024-02-21T01:19:44.159Z,102115.09
2024-02-21T01:22:10.984Z,102112.38
2024-02-21T01:24:37.641Z,102090.94
2024-02-21T01:27:04.405Z,102106.47
2024-02-21T01:29:33.954Z,102102.03
2024-02-21T01:32:00.561Z,102095.31
2024-02-21T01:34:30.432Z,102096.25
2024-02-21T01:37:00.322Z,102100.47
2024-02-21T01:39:29.294Z,102092.81
2024-02-21T01:41:55.892Z,102086.81
2024-02-21T01:44:22.492Z,102072.09
2024-02-21T01:46:49.192Z,102076.63
2024-02-21T01:49:15.975Z,102059.47
2024-02-21T01:51:42.541Z,102052.47
2024-02-21T01:54:11.071Z,102062.91
2024-02-21T01:56:38.012Z,102050.03
2024-02-21T01:59:04.683Z,102043.09
2024-02-21T02:01:31.439Z,102051.59
2024-02-21T02:04:00.223Z,102057.59
2024-02-21T02:06:26.940Z,102067.28
2024-02-21T02:08:57.796Z,102061.97
2024-02-21T02:11:24.548Z,102066.34
2024-02-21T02:13:51.169Z,102064.75
2024-02-21T02:16:17.779Z,102057.84
2024-02-21T02:18:44.475Z,102064.75
2024-02-21T02:21:24.091Z,102063.16
2024-02-21T02:23:50.688Z,102055.34
2024-02-21T02:26:17.229Z,102057.13
2024-02-21T02:28:43.808Z,102060.50
2024-02-21T02:31:10.464Z,102058.78
2024-02-21T02:33:37.202Z,102055.44
2024-02-21T02:36:04.074Z,102050.28
2024-02-21T02:38:30.645Z,102046.00
2024-02-21T02:40:57.365Z,102046.81
2024-02-21T02:43:24.137Z,102044.28
2024-02-21T02:45:50.727Z,102035.63
2024-02-21T02:48:17.625Z,102027.00
2024-02-21T02:50:44.248Z,102022.84
2024-02-21T02:53:10.802Z,102014.25
2024-02-21T02:55:37.405Z,102020.22
2024-02-21T02:58:04.378Z,102014.25
2024-02-21T03:00:30.997Z,102020.28
2024-02-21T03:02:57.665Z,102015.91
2024-02-21T03:05:27.094Z,102010.69
2024-02-21T03:07:53.896Z,102012.47
2024-02-21T03:10:20.783Z,102003.06
2024-02-21T03:12:47.948Z,102019.56
2024-02-21T03:15:15.673Z,102013.50
2024-02-21T03:17:42.905Z,102011.84
2024-02-21T03:20:11.470Z,102000.69
2024-02-21T03:22:39.244Z,101985.19
2024-02-21T03:25:07.703Z,101985.41
2024-02-21T03:27:34.799Z,101982.84
2024-02-21T03:30:02.598Z,101984.47
2024-02-21T03:32:30.353Z,101964.41
2024-02-21T03:34:57.805Z,101969.84
2024-02-21T03:37:24.521Z,101966.34
2024-02-21T03:39:51.195Z,101952.69
2024-02-21T03:42:17.795Z,101945.69
2024-02-21T03:44:44.371Z,101956.97
2024-02-21T03:47:12.703Z,101943.19
2024-02-21T03:49:39.813Z,101954.34
2024-02-21T03:52:06.719Z,101949.91
2024-02-21T03:54:33.356Z,101944.91
2024-02-21T03:56:59.928Z,101944.88
2024-02-21T03:59:26.487Z,101935.41
2024-02-21T04:01:55.733Z,101932.13
2024-02-21T04:04:22.596Z,101918.34
2024-02-21T04:06:50.404Z,101941.56
2024-02-21T04:09:17.186Z,101928.56
2024-02-21T04:11:44.136Z,101922.63
2024-02-21T04:14:12.589Z,101903.69
2024-02-21T04:16:40.207Z,101914.19
2024-02-21T04:19:06.838Z,101920.19
2024-02-21T04:21:33.693Z,101927.84
2024-02-21T04:24:00.679Z,101925.13
2024-02-21T04:26:27.331Z,101929.50
2024-02-21T04:28:54.089Z,101926.06
2024-02-21T04:31:20.727Z,101924.25
2024-02-21T04:33:47.642Z,101929.44
2024-02-21T04:36:14.252Z,101929.41
2024-02-21T04:38:41.975Z,101924.25
2024-02-21T04:41:09.242Z,101919.06
2024-02-21T04:43:36.214Z,101915.75
2024-02-21T04:46:03.053Z,101908.84
2024-02-21T04:48:29.636Z,101904.63
2024-02-21T04:50:56.237Z,101901.91
2024-02-21T04:53:22.867Z,101894.28
2024-02-21T04:55:49.636Z,101894.19
2024-02-21T04:58:16.368Z,101896.84
2024-02-21T05:00:43.133Z,101895.06
2024-02-21T05:03:09.890Z,101892.47
2024-02-21T05:05:36.932Z,101882.84
2024-02-21T05:08:04.289Z,101884.81
2024-02-21T05:10:30.990Z,101885.63
2024-02-21T05:12:59.358Z,101882.25
2024-02-21T05:15:26.067Z,101873.50
2024-02-21T05:17:52.712Z,101858.00
2024-02-21T05:20:19.483Z,101858.94
2024-02-21T05:22:46.182Z,101856.44
2024-02-21T05:25:12.733Z,101863.41
2024-02-21T05:27:39.778Z,101859.91
2024-02-21T05:30:07.837Z,101858.19
2024-02-21T05:32:34.617Z,101843.56
2024-02-21T05:35:01.560Z,101836.59
2024-02-21T05:37:28.290Z,101839.16
2024-02-21T05:39:54.990Z,101840.13
2024-02-21T05:42:21.629Z,101826.28
2024-02-21T05:44:48.243Z,101831.41
2024-02-21T05:47:16.732Z,101801.16
2024-02-21T05:49:43.904Z,101804.81
2024-02-21T05:52:10.668Z,101796.00
2024-02-21T05:54:40.268Z,101801.22
2024-02-21T05:57:09.609Z,101802.88
2024-02-21T05:59:37.597Z,101796.81
2024-02-21T06:02:05.466Z,101786.47
2024-02-21T06:04:32.313Z,101797.78
2024-02-21T06:06:59.194Z,101796.81
2024-02-21T06:09:26.134Z,101794.16
2024-02-21T06:11:52.936Z,101794.16
2024-02-21T06:14:21.019Z,101794.25
2024-02-21T06:16:47.672Z,101792.47
2024-02-21T06:19:14.509Z,101789.84
2024-02-21T06:21:41.154Z,101789.84
2024-02-21T06:24:07.923Z,101792.41
2024-02-21T06:26:34.522Z,101797.53
2024-02-21T06:29:01.720Z,101796.88
2024-02-21T06:31:29.204Z,101801.19
2024-02-21T06:33:56.137Z,101801.03
2024-02-21T06:36:23.066Z,101801.00
2024-02-21T06:38:49.836Z,101795.81
2024-02-21T06:41:20.591Z,101798.44
2024-02-21T06:43:48.490Z,101798.44
2024-02-21T06:46:29.911Z,101795.81
2024-02-21T06:48:58.419Z,101798.38
2024-02-21T06:51:28.747Z,101792.47
2024-02-21T06:53:56.286Z,101793.31
2024-02-21T06:56:30.126Z,101789.94
2024-02-21T06:58:57.326Z,101786.41
2024-02-21T07:01:24.864Z,101772.75
2024-02-21T07:03:51.727Z,101767.63
2024-02-21T07:06:18.473Z,101764.91
2024-02-21T07:08:45.140Z,101770.16
2024-02-21T07:11:12.577Z,101764.97
2024-02-21T07:13:41.469Z,101764.13
2024-02-21T07:16:09.083Z,101764.25
2024-02-21T07:18:36.001Z,101769.47
2024-02-21T07:21:02.718Z,101760.81
2024-02-21T07:23:29.270Z,101759.09
2024-02-21T07:25:56.044Z,101749.63
2024-02-21T07:28:22.689Z,101750.41
2024-02-21T07:30:49.579Z,101752.31
2024-02-21T07:33:16.202Z,101747.25
2024-02-21T07:35:46.359Z,101749.03
2024-02-21T07:38:14.019Z,101732.47
2024-02-21T07:40:40.920Z,101730.03
2024-02-21T07:43:07.591Z,101718.09
2024-02-21T07:45:34.316Z,101718.16
2024-02-21T07:48:01.000Z,101710.44
2024-02-21T07:50:28.101Z,101714.88
2024-02-21T07:52:54.801Z,101707.97
2024-02-21T07:55:21.434Z,101704.47
2024-02-21T07:57:48.044Z,101701.03
2024-02-21T08:00:21.221Z,101709.81
2024-02-21T08:02:49.985Z,101706.50
2024-02-21T08:05:16.699Z,101702.06
2024-02-21T08:07:43.305Z,101707.22
2024-02-21T08:10:10.052Z,101712.50
2024-02-21T08:12:36.969Z,101698.78
2024-02-21T08:15:09.261Z,101694.44
2024-02-21T08:17:35.865Z,101694.63
2024-02-21T08:20:02.542Z,101689.56
2024-02-21T08:22:29.668Z,101686.84
2024-02-21T08:24:56.231Z,101686.13
2024-02-21T08:27:22.970Z,101673.19
2024-02-21T08:29:49.591Z,101683.72
2024-02-21T08:32:16.123Z,101668.25
2024-02-21T08:34:42.937Z,101661.38
2024-02-21T08:37:11.859Z,101655.25
2024-02-21T08:39:38.468Z,101656.28
2024-02-21T08:42:05.746Z,101652.03
2024-02-21T08:44:32.326Z,101647.66
2024-02-21T08:46:59.006Z,101647.78
2024-02-21T08:49:33.464Z,101646.88
2024-02-21T08:52:01.618Z,101634.13
2024-02-21T08:54:28.250Z,101642.75
2024-02-21T08:56:55.714Z,101638.59
2024-02-21T08:59:22.396Z,101637.63
2024-02-21T09:01:49.220Z,101641.91
2024-02-21T09:04:15.877Z,101635.22
2024-02-21T09:06:43.063Z,101640.44
2024-02-21T09:09:10.958Z,101638.06
2024-02-21T09:11:38.965Z,101636.28
2024-02-21T09:14:05.766Z,101622.66
2024-02-21T09:16:33.317Z,101614.03
2024-02-21T09:19:00.388Z,101601.25
2024-02-21T09:21:27.025Z,101601.22
2024-02-21T09:23:55.719Z,101593.50
2024-02-21T09:26:24.459Z,101599.69
2024-02-21T09:28:51.203Z,101585.91
2024-02-21T09:31:17.881Z,101570.38
2024-02-21T09:33:44.563Z,101577.34
2024-02-21T09:36:11.828Z,101573.97
2024-02-21T09:38:41.028Z,101566.25
2024-02-21T09:41:22.800Z,101561.16
2024-02-21T09:43:54.830Z,101565.44
2024-02-21T09:46:46.144Z,101547.47
2024-02-21T09:49:25.241Z,101540.78
2024-02-21T09:51:55.026Z,101530.53
2024-02-21T09:54:23.074Z,101520.25
2024-02-21T09:56:49.762Z,101507.31
2024-02-21T09:59:17.250Z,101503.22
2024-02-21T10:01:50.624Z,101502.56
2024-02-21T10:04:17.355Z,101501.66
2024-02-21T10:06:44.637Z,101499.09
2024-02-21T10:09:31.889Z,101496.53
2024-02-21T10:12:10.563Z,101486.28
2024-02-21T10:14:37.560Z,101475.03
2024-02-21T10:17:06.160Z,101481.97
2024-02-21T10:19:32.916Z,101480.41
2024-02-21T10:22:08.868Z,101469.25
2024-02-21T10:24:36.425Z,101459.13
2024-02-21T10:27:09.998Z,101448.59
2024-02-21T10:29:37.134Z,101453.19
2024-02-21T10:32:14.956Z,101443.75
2024-02-21T10:34:44.465Z,101436.06
2024-02-21T10:37:12.745Z,101435.28
2024-02-21T10:39:43.690Z,101426.53
2024-02-21T10:42:12.894Z,101434.25
2024-02-21T10:44:42.407Z,101426.72
2024-02-21T10:47:11.224Z,101431.94
2024-02-21T10:49:42.515Z,101413.06
2024-02-21T10:52:31.142Z,101401.97
2024-02-21T10:55:04.952Z,101399.34
2024-02-21T10:57:37.789Z,101387.28
2024-02-21T11:00:09.126Z,101388.28
2024-02-21T11:02:36.482Z,101366.91
2024-02-21T11:05:04.733Z,101346.31
2024-02-21T11:07:34.044Z,101339.44
2024-02-21T11:10:01.289Z,101329.94
2024-02-21T11:12:28.832Z,101342.91
2024-02-21T11:15:06.386Z,101366.81
2024-02-21T11:17:33.856Z,101387.47
2024-02-21T11:20:13.391Z,101393.28
2024-02-21T11:22:44.147Z,101392.47
2024-02-21T11:25:12.923Z,101379.41
2024-02-21T11:27:39.991Z,101375.00
2024-02-21T11:30:07.137Z,101366.38
2024-02-21T11:32:33.748Z,101355.91
2024-02-21T11:35:07.120Z,101353.28
2024-02-21T11:37:39.804Z,101357.84
2024-02-21T11:40:11.503Z,101333.88
2024-02-21T11:42:38.981Z,101327.00
2024-02-21T11:45:06.083Z,101328.66
2024-02-21T11:47:32.745Z,101307.16
2024-02-21T11:49:59.549Z,101315.72
2024-02-21T11:52:27.698Z,101293.34
2024-02-21T11:54:57.488Z,101308.78
2024-02-21T11:57:26.669Z,101277.69
2024-02-21T11:59:58.255Z,101274.16
2024-02-21T12:02:27.975Z,101260.50
2024-02-21T12:04:55.814Z,101235.09
2024-02-21T12:07:24.854Z,101219.19
2024-02-21T12:09:53.634Z,101211.63
2024-02-21T12:12:22.076Z,101195.41
2024-02-21T12:14:57.640Z,101179.13
2024-02-21T12:17:24.762Z,101188.81
2024-02-21T12:19:52.125Z,101179.31
2024-02-21T12:22:22.006Z,101184.59
2024-02-21T12:24:50.276Z,101160.53
2024-02-21T12:27:16.889Z,101161.38
2024-02-21T12:29:43.524Z,101159.66
2024-02-21T12:32:10.305Z,101152.19
2024-02-21T12:34:47.898Z,101142.75
2024-02-21T12:37:21.483Z,101130.72
2024-02-21T12:39:48.630Z,101118.66
2024-02-21T12:42:15.297Z,101122.88
2024-02-21T12:44:41.930Z,101116.84
2024-02-21T12:47:09.461Z,101120.22
2024-02-21T12:52:04.831Z,101079.72
2024-02-21T12:54:32.202Z,101083.22
2024-02-21T12:57:00.252Z,101061.72
2024-02-21T12:59:28.945Z,101066.03
2024-02-21T13:01:55.707Z,101068.59
2024-02-21T13:04:23.952Z,101051.50
2024-02-21T13:06:50.755Z,101058.28
2024-02-21T13:09:17.342Z,101048.72
2024-02-21T13:11:46.108Z,101048.66
2024-02-21T13:14:13.149Z,101019.44
2024-02-21T13:16:43.080Z,101025.53
2024-02-21T13:19:10.034Z,101003.22
2024-02-21T13:21:37.417Z,100998.91
2024-02-21T13:24:04.581Z,101000.59
2024-02-21T13:26:31.273Z,100982.59
2024-02-21T13:28:58.060Z,100980.75
2024-02-21T13:31:26.826Z,100972.16
2024-02-21T13:33:53.748Z,100975.53
2024-02-21T13:36:20.674Z,100972.06
2024-02-21T13:38:48.280Z,100968.63
2024-02-21T13:41:15.214Z,100953.03
2024-02-21T13:43:41.937Z,100949.63
2024-02-21T13:46:11.159Z,100951.31
2024-02-21T13:48:39.597Z,100943.59
2024-02-21T13:51:06.334Z,100931.50
2024-02-21T13:53:33.046Z,100914.28
2024-02-21T13:56:02.415Z,100924.63
2024-02-21T13:58:29.125Z,100916.84
2024-02-21T14:00:55.849Z,100905.66
2024-02-21T14:03:22.664Z,100896.22
2024-02-21T14:05:52.345Z,100895.41
2024-02-21T14:08:19.014Z,100884.22
2024-02-21T14:10:45.820Z,100867.06
2024-02-21T14:13:12.938Z,100863.56
2024-02-21T14:15:42.104Z,100843.78
2024-02-21T14:18:10.538Z,100842.13
2024-02-21T14:20:40.380Z,100826.69
2024-02-21T14:23:07.128Z,100813.94
2024-02-21T14:25:34.732Z,100812.25
2024-02-21T14:28:01.896Z,100802.75
2024-02-21T14:30:28.654Z,100792.41
2024-02-21T14:32:55.272Z,100785.56
2024-02-21T14:35:22.034Z,100776.19
2024-02-21T14:37:50.433Z,100758.97
2024-02-21T14:40:17.134Z,100753.00
2024-02-21T14:42:43.762Z,100732.31
2024-02-21T14:45:10.474Z,100735.84
2024-02-21T14:47:37.299Z,100738.41
2024-02-21T14:50:06.114Z,100739.28
2024-02-21T14:52:34.404Z,100730.63
2024-02-21T14:55:04.064Z,100722.03
2024-02-21T14:57:30.843Z,100705.72
2024-02-21T15:00:00.049Z,100690.31
2024-02-21T15:02:29.062Z,100687.72
2024-02-21T15:04:56.468Z,100681.66
2024-02-21T15:07:26.672Z,100684.13
2024-02-21T15:09:53.815Z,100660.84
2024-02-21T15:12:20.551Z,100659.94
2024-02-21T15:14:47.295Z,100646.22
2024-02-21T15:17:14.286Z,100636.75
2024-02-21T15:19:45.063Z,100640.94
2024-02-21T15:22:12.769Z,100624.63
2024-02-21T15:24:40.481Z,100618.56
2024-02-21T15:27:07.503Z,100595.38
2024-02-21T15:29:35.573Z,100589.34
2024-02-21T15:32:02.138Z,100588.44
2024-02-21T15:34:28.953Z,100585.06
2024-02-21T15:36:55.714Z,100568.66
2024-02-21T15:39:22.277Z,100573.78
2024-02-21T15:41:48.848Z,100575.50
2024-02-21T15:44:15.558Z,100566.91
2024-02-21T15:46:42.157Z,100560.03
2024-02-21T15:49:09.128Z,100563.41
2024-02-21T15:51:36.229Z,100542.75
2024-02-21T15:54:03.091Z,100558.25
2024-02-21T15:56:29.699Z,100548.78
2024-02-21T15:58:56.513Z,100527.41
2024-02-21T16:01:24.659Z,100528.19
2024-02-21T16:03:53.521Z,100524.78
2024-02-21T16:06:20.244Z,100521.31
2024-02-21T16:08:48.292Z,100524.72
2024-02-21T16:11:18.988Z,100526.38
2024-02-21T16:13:47.670Z,100511.88
2024-02-21T16:16:14.560Z,100490.44
2024-02-21T16:18:41.221Z,100490.44
2024-02-21T16:21:07.863Z,100494.72
2024-02-21T16:23:34.442Z,100499.81
2024-02-21T16:26:02.304Z,100491.25
2024-02-21T16:28:29.128Z,100483.53
2024-02-21T16:30:57.659Z,100484.38
2024-02-21T16:33:25.794Z,100476.66
2024-02-21T16:35:52.767Z,100482.63
2024-02-21T16:38:19.694Z,100456.06
2024-02-21T16:40:46.502Z,100456.06
2024-02-21T16:43:13.129Z,100460.41
2024-02-21T16:45:39.876Z,100450.06
2024-02-21T16:48:06.864Z,100449.22
2024-02-21T16:50:39.074Z,100441.50
2024-02-21T16:53:12.430Z,100443.25
2024-02-21T16:55:39.089Z,100438.94
2024-02-21T16:58:06.047Z,100427.75
2024-02-21T17:00:33.115Z,100425.19
2024-02-21T17:03:00.379Z,100420.88
2024-02-21T17:05:27.477Z,100415.75
2024-02-21T17:07:54.700Z,100418.34
2024-02-21T17:10:21.522Z,100408.03
2024-02-21T17:12:48.203Z,100408.03
2024-02-21T17:15:16.904Z,100406.28
2024-02-21T17:17:43.879Z,100397.72
2024-02-21T17:20:11.025Z,100399.41
2024-02-21T17:22:37.905Z,100395.94
2024-02-21T17:25:10.981Z,100390.81
2024-02-21T17:27:38.599Z,100383.13
2024-02-21T17:30:07.073Z,100375.38
2024-02-21T17:32:35.618Z,100377.16
2024-02-21T17:35:06.718Z,100384.00
2024-02-21T17:37:36.504Z,100377.16
2024-02-21T17:40:08.449Z,100364.25
2024-02-21T17:42:35.937Z,100359.97
2024-02-21T17:45:04.109Z,100348.88
2024-02-21T17:47:32.094Z,100353.16
2024-02-21T17:49:59.128Z,100336.88
2024-02-21T17:52:28.240Z,100336.91
2024-02-21T17:54:54.996Z,100330.94
2024-02-21T17:57:21.575Z,100320.59
2024-02-21T17:59:48.206Z,100294.91
2024-02-21T18:02:20.813Z,100317.22
2024-02-21T18:04:48.874Z,100306.06
2024-02-21T18:07:15.775Z,100309.53
2024-02-21T18:09:42.503Z,100306.97
2024-02-21T18:12:09.650Z,100294.91
2024-02-21T18:14:37.018Z,100294.94
2024-02-21T18:17:03.747Z,100278.69
2024-02-21T18:19:35.547Z,100265.75
2024-02-21T18:22:02.988Z,100278.75
2024-02-21T18:24:29.573Z,100265.84
2024-02-21T18:26:56.593Z,100274.44
2024-02-21T18:29:34.709Z,100254.69
2024-02-21T18:32:06.315Z,100231.50
2024-02-21T18:34:33.201Z,100261.56
2024-02-21T18:36:59.811Z,100258.19
2024-02-21T18:39:26.429Z,100247.03
2024-02-21T18:41:53.988Z,100241.91
2024-02-21T18:44:20.587Z,100242.81
2024-02-21T18:46:47.346Z,100224.78
2024-02-21T18:49:13.971Z,100223.94
2024-02-21T18:51:41.036Z,100222.22
2024-02-21T18:54:07.687Z,100216.22
2024-02-21T18:56:35.303Z,100210.22
2024-02-21T18:59:01.985Z,100212.81
2024-02-21T19:01:28.773Z,100203.41
2024-02-21T19:03:55.452Z,100193.13
2024-02-21T19:06:22.448Z,100186.28
2024-02-21T19:08:49.112Z,100187.97
2024-02-21T19:11:15.875Z,100176.84
2024-02-21T19:13:42.808Z,100177.69
2024-02-21T19:16:11.314Z,100170.00
2024-02-21T19:18:38.731Z,100161.44
2024-02-21T19:21:05.911Z,100164.03
2024-02-21T19:23:32.451Z,100157.16
2024-02-21T19:25:59.056Z,100143.41
2024-02-21T19:28:25.722Z,100149.44
2024-02-21T19:30:52.341Z,100147.75
2024-02-21T19:33:19.720Z,100138.31
2024-02-21T19:35:46.549Z,100131.47
2024-02-21T19:38:13.368Z,100130.63
2024-02-21T19:40:40.003Z,100131.47
2024-02-21T19:43:06.651Z,100088.59
2024-02-21T19:45:35.728Z,100126.34
2024-02-21T19:48:02.574Z,100116.88
2024-02-21T19:50:33.853Z,100122.06
2024-02-21T19:53:01.249Z,100122.09
2024-02-21T19:55:28.382Z,100118.63
2024-02-21T19:57:55.486Z,100113.50
2024-02-21T20:00:22.368Z,100096.34
2024-02-21T20:02:49.885Z,100107.50
2024-02-21T20:05:17.081Z,100106.66
2024-02-21T20:07:43.776Z,100098.09
2024-02-21T20:10:11.144Z,100087.81
2024-02-21T20:12:41.198Z,100086.06
2024-02-21T20:15:08.326Z,100091.22
2024-02-21T20:17:35.200Z,100082.66
2024-02-21T20:20:04.231Z,100073.22
2024-02-21T20:22:30.852Z,100066.41
2024-02-21T20:24:57.495Z,100068.97
2024-02-21T20:27:24.032Z,100063.81
2024-02-21T20:29:50.679Z,100058.69
2024-02-21T20:32:17.262Z,100056.97
2024-02-21T20:34:44.513Z,100048.41
2024-02-21T20:37:12.412Z,100043.28
2024-02-21T20:39:39.049Z,100042.41
2024-02-21T20:42:05.894Z,100044.13
2024-02-21T20:44:32.505Z,100055.25
2024-02-21T20:46:59.097Z,100048.44
2024-02-21T20:49:27.493Z,100051.81
2024-02-21T20:51:55.171Z,100033.00
2024-02-21T20:54:21.762Z,100032.13
2024-02-21T20:56:48.350Z,100034.72
2024-02-21T20:59:20.117Z,100020.13
2024-02-21T21:01:54.172Z,100020.13
2024-02-21T21:04:28.769Z,100014.16
2024-02-21T21:06:55.752Z,100007.28
2024-02-21T21:09:22.345Z,99974.72
2024-02-21T21:11:49.068Z,100008.13
2024-02-21T21:14:15.835Z,100009.00
2024-02-21T21:16:42.524Z,100001.28
2024-02-21T21:19:09.731Z,100004.72
2024-02-21T21:21:36.493Z,99987.56
2024-02-21T21:24:03.260Z,99984.16
2024-02-21T21:26:29.871Z,99995.28
2024-02-21T21:28:58.012Z,100000.41
2024-02-21T21:31:26.789Z,99992.72
2024-02-21T21:33:54.048Z,99980.69
2024-02-21T21:36:21.521Z,99990.13
2024-02-21T21:38:51.007Z,99987.56
2024-02-21T21:41:17.915Z,99985.00
2024-02-21T21:43:44.577Z,99984.16
2024-02-21T21:46:15.082Z,99991.84
2024-02-21T21:48:45.247Z,99979.88
2024-02-21T21:51:12.196Z,99967.88
2024-02-21T21:53:40.783Z,99966.16
2024-02-21T21:56:08.135Z,99976.44
2024-02-21T21:58:35.067Z,99967.88
2024-02-21T22:01:01.780Z,99965.31
2024-02-21T22:03:29.442Z,99955.88
2024-02-21T22:05:56.551Z,99949.03
2024-02-21T22:08:23.220Z,99943.88
2024-02-21T22:10:50.906Z,99950.72
2024-02-21T22:13:17.999Z,99943.88
2024-02-21T22:15:44.649Z,99948.19
2024-02-21T22:18:11.589Z,99939.59
2024-02-21T22:20:38.314Z,99925.88
2024-02-21T22:23:05.599Z,99925.03
2024-02-21T22:25:32.542Z,99919.88
2024-02-21T22:27:59.645Z,99907.00
2024-02-21T22:30:27.007Z,99883.84
2024-02-21T22:32:53.922Z,99905.28
2024-02-21T22:35:20.869Z,99897.56
2024-02-21T22:37:47.782Z,99901.84
2024-02-21T22:40:14.789Z,99913.84
2024-02-21T22:42:43.998Z,99905.28
2024-02-21T22:45:10.859Z,99921.56
2024-02-21T22:47:37.577Z,99898.44
2024-02-21T22:50:04.592Z,99906.13
2024-02-21T22:52:31.393Z,99895.84
2024-02-21T22:54:58.026Z,99899.28
2024-02-21T22:57:24.657Z,99902.72
2024-02-21T22:59:51.546Z,99901.81
2024-02-21T23:02:18.236Z,99906.97
2024-02-21T23:04:45.882Z,99883.81
2024-02-21T23:07:12.643Z,99890.69
2024-02-21T23:09:39.445Z,99893.28
2024-02-21T23:12:06.426Z,99887.25
2024-02-21T23:14:33.054Z,99887.25
2024-02-21T23:16:59.665Z,99894.97
2024-02-21T23:19:26.395Z,99891.53
2024-02-21T23:21:53.799Z,99894.94
2024-02-21T23:24:20.358Z,99894.09
2024-02-21T23:26:46.930Z,99886.38
2024-02-21T23:29:13.654Z,99884.69
2024-02-21T23:31:40.823Z,99888.94
2024-02-21T23:34:07.692Z,99891.50
2024-02-21T23:36:34.376Z,99886.34
2024-02-21T23:39:00.995Z,99886.34
2024-02-21T23:41:27.575Z,99872.66
2024-02-21T23:43:56.555Z,99879.47
2024-02-21T23:46:24.275Z,99882.06
2024-02-21T23:48:51.884Z,99876.03
2024-02-21T23:51:20.680Z,99876.91
2024-02-21T23:53:47.353Z,99882.06
2024-02-21T23:56:14.047Z,99883.75
2024-02-21T23:58:40.748Z,99872.63
